sensor_id;sensor_type;location;lat;lon;timestamp;P1;durP1;ratioP1;P2;durP2;ratioP2
15624;SDS011;7912;51.376;6.126;2023-04-15T00:02:16;6.13;;;4.03;;
15624;SDS011;7912;51.376;6.126;2023-04-15T00:04:46;5.53;;;4.20;;
15624;SDS011;7912;51.376;6.126;2023-04-15T00:07:32;5.47;;;4.40;;
15624;SDS011;7912;51.376;6.126;2023-04-15T00:14:46;6.13;;;4.20;;
15624;SDS011;7912;51.376;6.126;2023-04-15T00:21:24;6.77;;;4.23;;
15624;SDS011;7912;51.376;6.126;2023-04-15T00:23:53;5.77;;;4.30;;
15624;SDS011;7912;51.376;6.126;2023-04-15T00:26:21;6.20;;;4.37;;
15624;SDS011;7912;51.376;6.126;2023-04-15T00:33:07;4.60;;;3.93;;
15624;SDS011;7912;51.376;6.126;2023-04-15T00:35:46;7.17;;;4.70;;
15624;SDS011;7912;51.376;6.126;2023-04-15T00:38:13;8.13;;;5.27;;
15624;SDS011;7912;51.376;6.126;2023-04-15T00:40:44;6.87;;;5.13;;
15624;SDS011;7912;51.376;6.126;2023-04-15T00:43:11;7.17;;;5.43;;
15624;SDS011;7912;51.376;6.126;2023-04-15T00:45:39;6.00;;;5.40;;
15624;SDS011;7912;51.376;6.126;2023-04-15T00:48:07;6.00;;;5.37;;
15624;SDS011;7912;51.376;6.126;2023-04-15T00:50:34;8.40;;;5.53;;
15624;SDS011;7912;51.376;6.126;2023-04-15T00:53:02;8.43;;;5.80;;
15624;SDS011;7912;51.376;6.126;2023-04-15T00:55:29;7.07;;;5.53;;
15624;SDS011;7912;51.376;6.126;2023-04-15T00:57:57;6.23;;;5.40;;
15624;SDS011;7912;51.376;6.126;2023-04-15T01:00:25;6.87;;;5.70;;
15624;SDS011;7912;51.376;6.126;2023-04-15T01:02:53;6.43;;;5.30;;
15624;SDS011;7912;51.376;6.126;2023-04-15T01:05:27;8.77;;;6.30;;
15624;SDS011;7912;51.376;6.126;2023-04-15T01:07:56;8.10;;;6.60;;
15624;SDS011;7912;51.376;6.126;2023-04-15T01:10:26;8.40;;;5.80;;
15624;SDS011;7912;51.376;6.126;2023-04-15T01:12:54;8.17;;;6.00;;
15624;SDS011;7912;51.376;6.126;2023-04-15T01:15:27;8.47;;;6.07;;
15624;SDS011;7912;51.376;6.126;2023-04-15T01:17:58;7.20;;;5.73;;
15624;SDS011;7912;51.376;6.126;2023-04-15T01:20:26;8.73;;;6.07;;
15624;SDS011;7912;51.376;6.126;2023-04-15T01:22:55;8.77;;;6.10;;
15624;SDS011;7912;51.376;6.126;2023-04-15T01:25:29;8.33;;;6.60;;
15624;SDS011;7912;51.376;6.126;2023-04-15T01:28:01;8.03;;;6.23;;
15624;SDS011;7912;51.376;6.126;2023-04-15T01:30:32;7.80;;;7.00;;
15624;SDS011;7912;51.376;6.126;2023-04-15T01:33:05;8.87;;;8.00;;
15624;SDS011;7912;51.376;6.126;2023-04-15T01:35:36;8.30;;;7.43;;
15624;SDS011;7912;51.376;6.126;2023-04-15T01:38:05;8.60;;;7.70;;
15624;SDS011;7912;51.376;6.126;2023-04-15T01:40:37;8.50;;;7.30;;
15624;SDS011;7912;51.376;6.126;2023-04-15T01:43:09;9.57;;;7.47;;
15624;SDS011;7912;51.376;6.126;2023-04-15T01:45:39;10.70;;;8.03;;
15624;SDS011;7912;51.376;6.126;2023-04-15T01:48:07;10.83;;;7.87;;
15624;SDS011;7912;51.376;6.126;2023-04-15T01:50:35;10.07;;;8.13;;
15624;SDS011;7912;51.376;6.126;2023-04-15T01:53:05;11.97;;;9.97;;
15624;SDS011;7912;51.376;6.126;2023-04-15T01:55:36;17.00;;;12.37;;
15624;SDS011;7912;51.376;6.126;2023-04-15T01:58:07;14.07;;;11.33;;
15624;SDS011;7912;51.376;6.126;2023-04-15T02:00:38;14.77;;;10.50;;
15624;SDS011;7912;51.376;6.126;2023-04-15T02:03:05;26.50;;;17.47;;
15624;SDS011;7912;51.376;6.126;2023-04-15T02:05:34;25.60;;;15.63;;
15624;SDS011;7912;51.376;6.126;2023-04-15T02:08:04;34.53;;;20.40;;
15624;SDS011;7912;51.376;6.126;2023-04-15T02:10:35;39.73;;;23.17;;
15624;SDS011;7912;51.376;6.126;2023-04-15T02:13:03;41.00;;;22.53;;
15624;SDS011;7912;51.376;6.126;2023-04-15T02:15:30;26.60;;;17.10;;
15624;SDS011;7912;51.376;6.126;2023-04-15T02:18:00;21.73;;;13.83;;
15624;SDS011;7912;51.376;6.126;2023-04-15T02:20:28;15.83;;;10.70;;
15624;SDS011;7912;51.376;6.126;2023-04-15T02:22:58;14.87;;;9.53;;
15624;SDS011;7912;51.376;6.126;2023-04-15T02:25:26;11.80;;;9.20;;
15624;SDS011;7912;51.376;6.126;2023-04-15T02:27:53;14.00;;;9.63;;
15624;SDS011;7912;51.376;6.126;2023-04-15T02:38:44;11.10;;;8.83;;
15624;SDS011;7912;51.376;6.126;2023-04-15T02:49:08;11.70;;;9.30;;
15624;SDS011;7912;51.376;6.126;2023-04-15T02:59:33;12.03;;;9.07;;
15624;SDS011;7912;51.376;6.126;2023-04-15T03:02:04;11.83;;;8.57;;
15624;SDS011;7912;51.376;6.126;2023-04-15T03:04:37;10.13;;;9.10;;
15624;SDS011;7912;51.376;6.126;2023-04-15T03:07:08;11.13;;;9.60;;
15624;SDS011;7912;51.376;6.126;2023-04-15T03:09:36;13.97;;;9.57;;
15624;SDS011;7912;51.376;6.126;2023-04-15T03:12:06;10.17;;;9.17;;
15624;SDS011;7912;51.376;6.126;2023-04-15T03:14:33;11.73;;;9.23;;
15624;SDS011;7912;51.376;6.126;2023-04-15T03:17:03;13.07;;;9.90;;
15624;SDS011;7912;51.376;6.126;2023-04-15T03:19:39;11.00;;;9.90;;
15624;SDS011;7912;51.376;6.126;2023-04-15T03:22:10;11.93;;;10.10;;
15624;SDS011;7912;51.376;6.126;2023-04-15T03:24:37;12.80;;;10.23;;
15624;SDS011;7912;51.376;6.126;2023-04-15T03:27:04;14.67;;;10.53;;
15624;SDS011;7912;51.376;6.126;2023-04-15T03:29:35;11.47;;;10.27;;
15624;SDS011;7912;51.376;6.126;2023-04-15T03:32:02;11.20;;;9.50;;
15624;SDS011;7912;51.376;6.126;2023-04-15T03:34:30;11.97;;;10.77;;
15624;SDS011;7912;51.376;6.126;2023-04-15T03:36:57;10.80;;;9.73;;
15624;SDS011;7912;51.376;6.126;2023-04-15T03:39:25;11.40;;;10.03;;
15624;SDS011;7912;51.376;6.126;2023-04-15T03:41:52;11.73;;;10.53;;
15624;SDS011;7912;51.376;6.126;2023-04-15T03:44:20;11.40;;;10.20;;
15624;SDS011;7912;51.376;6.126;2023-04-15T03:46:47;12.83;;;10.90;;
15624;SDS011;7912;51.376;6.126;2023-04-15T03:49:18;11.57;;;10.37;;
15624;SDS011;7912;51.376;6.126;2023-04-15T03:51:49;13.53;;;11.13;;
15624;SDS011;7912;51.376;6.126;2023-04-15T03:54:16;12.77;;;10.17;;
15624;SDS011;7912;51.376;6.126;2023-04-15T03:56:43;11.63;;;10.37;;
15624;SDS011;7912;51.376;6.126;2023-04-15T03:59:11;11.97;;;10.67;;
15624;SDS011;7912;51.376;6.126;2023-04-15T04:01:38;12.87;;;10.43;;
15624;SDS011;7912;51.376;6.126;2023-04-15T04:04:06;13.07;;;10.63;;
15624;SDS011;7912;51.376;6.126;2023-04-15T04:06:36;13.00;;;10.33;;
15624;SDS011;7912;51.376;6.126;2023-04-15T04:09:03;12.43;;;10.03;;
15624;SDS011;7912;51.376;6.126;2023-04-15T04:11:34;11.70;;;9.87;;
15624;SDS011;7912;51.376;6.126;2023-04-15T04:14:06;12.80;;;10.37;;
15624;SDS011;7912;51.376;6.126;2023-04-15T04:16:36;11.17;;;9.63;;
15624;SDS011;7912;51.376;6.126;2023-04-15T04:19:06;10.53;;;9.30;;
15624;SDS011;7912;51.376;6.126;2023-04-15T04:25:44;10.80;;;9.03;;
15624;SDS011;7912;51.376;6.126;2023-04-15T04:28:12;14.03;;;9.60;;
15624;SDS011;7912;51.376;6.126;2023-04-15T04:30:39;10.00;;;8.97;;
15624;SDS011;7912;51.376;6.126;2023-04-15T04:33:08;11.83;;;9.63;;
15624;SDS011;7912;51.376;6.126;2023-04-15T04:35:38;10.53;;;8.43;;
15624;SDS011;7912;51.376;6.126;2023-04-15T04:38:06;12.03;;;9.47;;
15624;SDS011;7912;51.376;6.126;2023-04-15T04:40:36;9.97;;;8.97;;
15624;SDS011;7912;51.376;6.126;2023-04-15T04:43:07;10.83;;;9.73;;
15624;SDS011;7912;51.376;6.126;2023-04-15T04:45:36;10.63;;;8.73;;
15624;SDS011;7912;51.376;6.126;2023-04-15T04:48:04;12.00;;;8.67;;
15624;SDS011;7912;51.376;6.126;2023-04-15T04:50:34;10.40;;;9.30;;
15624;SDS011;7912;51.376;6.126;2023-04-15T04:53:02;12.13;;;9.30;;
15624;SDS011;7912;51.376;6.126;2023-04-15T04:55:32;11.63;;;9.30;;
15624;SDS011;7912;51.376;6.126;2023-04-15T04:58:02;12.67;;;9.63;;
15624;SDS011;7912;51.376;6.126;2023-04-15T05:00:32;10.60;;;9.40;;
15624;SDS011;7912;51.376;6.126;2023-04-15T05:07:10;11.33;;;9.13;;
15624;SDS011;7912;51.376;6.126;2023-04-15T05:09:38;10.03;;;9.03;;
15624;SDS011;7912;51.376;6.126;2023-04-15T05:12:07;12.03;;;9.80;;
15624;SDS011;7912;51.376;6.126;2023-04-15T05:14:40;10.07;;;8.87;;
15624;SDS011;7912;51.376;6.126;2023-04-15T05:17:08;11.87;;;10.03;;
15624;SDS011;7912;51.376;6.126;2023-04-15T05:19:37;10.90;;;9.27;;
15624;SDS011;7912;51.376;6.126;2023-04-15T05:22:04;10.27;;;8.87;;
15624;SDS011;7912;51.376;6.126;2023-04-15T05:24:32;12.90;;;9.93;;
15624;SDS011;7912;51.376;6.126;2023-04-15T05:27:00;10.87;;;9.87;;
15624;SDS011;7912;51.376;6.126;2023-04-15T05:29:28;11.77;;;9.60;;
15624;SDS011;7912;51.376;6.126;2023-04-15T05:31:59;10.50;;;8.87;;
15624;SDS011;7912;51.376;6.126;2023-04-15T05:34:27;10.23;;;8.93;;
15624;SDS011;7912;51.376;6.126;2023-04-15T05:36:54;10.60;;;9.10;;
15624;SDS011;7912;51.376;6.126;2023-04-15T05:39:22;12.70;;;9.67;;
15624;SDS011;7912;51.376;6.126;2023-04-15T05:41:49;10.37;;;9.30;;
15624;SDS011;7912;51.376;6.126;2023-04-15T05:44:16;9.10;;;8.20;;
15624;SDS011;7912;51.376;6.126;2023-04-15T05:46:44;10.27;;;9.23;;
15624;SDS011;7912;51.376;6.126;2023-04-15T05:49:11;10.07;;;9.00;;
15624;SDS011;7912;51.376;6.126;2023-04-15T05:51:39;11.17;;;9.30;;
15624;SDS011;7912;51.376;6.126;2023-04-15T05:54:07;10.17;;;9.10;;
15624;SDS011;7912;51.376;6.126;2023-04-15T05:56:34;11.63;;;9.27;;
15624;SDS011;7912;51.376;6.126;2023-04-15T05:59:02;12.80;;;9.67;;
15624;SDS011;7912;51.376;6.126;2023-04-15T06:01:37;11.47;;;9.50;;
15624;SDS011;7912;51.376;6.126;2023-04-15T06:04:05;11.53;;;9.67;;
15624;SDS011;7912;51.376;6.126;2023-04-15T06:06:37;11.33;;;9.80;;
15624;SDS011;7912;51.376;6.126;2023-04-15T06:09:04;11.90;;;10.07;;
15624;SDS011;7912;51.376;6.126;2023-04-15T06:11:32;11.00;;;9.90;;
15624;SDS011;7912;51.376;6.126;2023-04-15T06:13:59;11.00;;;9.67;;
15624;SDS011;7912;51.376;6.126;2023-04-15T06:16:27;10.53;;;9.23;;
15624;SDS011;7912;51.376;6.126;2023-04-15T06:18:58;11.93;;;9.67;;
15624;SDS011;7912;51.376;6.126;2023-04-15T06:21:26;12.63;;;9.73;;
15624;SDS011;7912;51.376;6.126;2023-04-15T06:23:53;14.50;;;10.80;;
15624;SDS011;7912;51.376;6.126;2023-04-15T06:26:23;11.50;;;10.20;;
15624;SDS011;7912;51.376;6.126;2023-04-15T06:28:50;10.33;;;9.33;;
15624;SDS011;7912;51.376;6.126;2023-04-15T06:31:21;11.33;;;9.77;;
15624;SDS011;7912;51.376;6.126;2023-04-15T06:33:48;10.30;;;9.23;;
15624;SDS011;7912;51.376;6.126;2023-04-15T06:36:16;11.10;;;9.63;;
15624;SDS011;7912;51.376;6.126;2023-04-15T06:38:44;10.43;;;9.33;;
15624;SDS011;7912;51.376;6.126;2023-04-15T06:41:12;12.47;;;9.40;;
15624;SDS011;7912;51.376;6.126;2023-04-15T06:43:39;11.27;;;9.10;;
15624;SDS011;7912;51.376;6.126;2023-04-15T06:46:06;10.53;;;8.80;;
15624;SDS011;7912;51.376;6.126;2023-04-15T06:48:34;11.80;;;10.00;;
15624;SDS011;7912;51.376;6.126;2023-04-15T06:51:05;10.53;;;9.43;;
15624;SDS011;7912;51.376;6.126;2023-04-15T06:53:32;10.47;;;9.30;;
15624;SDS011;7912;51.376;6.126;2023-04-15T06:56:01;9.80;;;8.80;;
15624;SDS011;7912;51.376;6.126;2023-04-15T06:58:28;10.80;;;9.30;;
15624;SDS011;7912;51.376;6.126;2023-04-15T07:00:56;11.13;;;9.20;;
15624;SDS011;7912;51.376;6.126;2023-04-15T07:03:24;10.53;;;8.93;;
15624;SDS011;7912;51.376;6.126;2023-04-15T07:05:51;10.20;;;9.00;;
15624;SDS011;7912;51.376;6.126;2023-04-15T07:08:20;10.47;;;9.30;;
15624;SDS011;7912;51.376;6.126;2023-04-15T07:10:48;9.97;;;8.97;;
15624;SDS011;7912;51.376;6.126;2023-04-15T07:13:17;9.70;;;8.80;;
15624;SDS011;7912;51.376;6.126;2023-04-15T07:15:45;10.07;;;8.93;;
15624;SDS011;7912;51.376;6.126;2023-04-15T07:18:13;10.90;;;8.80;;
15624;SDS011;7912;51.376;6.126;2023-04-15T07:20:41;10.07;;;9.07;;
15624;SDS011;7912;51.376;6.126;2023-04-15T07:23:10;11.13;;;9.83;;
15624;SDS011;7912;51.376;6.126;2023-04-15T07:25:37;11.00;;;9.83;;
15624;SDS011;7912;51.376;6.126;2023-04-15T07:28:05;10.87;;;9.77;;
15624;SDS011;7912;51.376;6.126;2023-04-15T07:30:32;11.43;;;10.23;;
15624;SDS011;7912;51.376;6.126;2023-04-15T07:33:00;10.60;;;9.60;;
15624;SDS011;7912;51.376;6.126;2023-04-15T07:35:28;12.17;;;9.90;;
15624;SDS011;7912;51.376;6.126;2023-04-15T07:37:56;11.07;;;9.90;;
15624;SDS011;7912;51.376;6.126;2023-04-15T07:40:26;11.10;;;10.00;;
15624;SDS011;7912;51.376;6.126;2023-04-15T07:42:57;10.03;;;9.03;;
15624;SDS011;7912;51.376;6.126;2023-04-15T07:45:25;11.17;;;10.07;;
15624;SDS011;7912;51.376;6.126;2023-04-15T07:47:53;12.10;;;9.30;;
15624;SDS011;7912;51.376;6.126;2023-04-15T07:50:22;10.47;;;9.20;;
15624;SDS011;7912;51.376;6.126;2023-04-15T07:52:50;10.87;;;9.77;;
15624;SDS011;7912;51.376;6.126;2023-04-15T07:55:18;10.10;;;9.10;;
15624;SDS011;7912;51.376;6.126;2023-04-15T07:57:49;11.30;;;10.20;;
15624;SDS011;7912;51.376;6.126;2023-04-15T08:03:21;9.57;;;8.57;;
15624;SDS011;7912;51.376;6.126;2023-04-15T08:05:49;10.13;;;9.00;;
15624;SDS011;7912;51.376;6.126;2023-04-15T08:08:20;9.57;;;8.67;;
15624;SDS011;7912;51.376;6.126;2023-04-15T08:10:50;9.50;;;8.50;;
15624;SDS011;7912;51.376;6.126;2023-04-15T08:13:19;9.03;;;8.13;;
15624;SDS011;7912;51.376;6.126;2023-04-15T08:16:12;9.73;;;8.83;;
15624;SDS011;7912;51.376;6.126;2023-04-15T08:18:45;11.57;;;7.97;;
15624;SDS011;7912;51.376;6.126;2023-04-15T08:21:14;8.57;;;7.73;;
15624;SDS011;7912;51.376;6.126;2023-04-15T08:23:43;7.13;;;6.43;;
15624;SDS011;7912;51.376;6.126;2023-04-15T08:26:12;7.53;;;6.80;;
15624;SDS011;7912;51.376;6.126;2023-04-15T08:28:40;7.77;;;7.00;;
15624;SDS011;7912;51.376;6.126;2023-04-15T08:31:11;7.73;;;6.90;;
15624;SDS011;7912;51.376;6.126;2023-04-15T08:33:40;7.80;;;7.10;;
15624;SDS011;7912;51.376;6.126;2023-04-15T08:36:08;7.53;;;6.77;;
15624;SDS011;7912;51.376;6.126;2023-04-15T08:38:36;7.33;;;6.63;;
15624;SDS011;7912;51.376;6.126;2023-04-15T08:41:11;7.30;;;6.60;;
15624;SDS011;7912;51.376;6.126;2023-04-15T08:43:57;7.13;;;6.43;;
15624;SDS011;7912;51.376;6.126;2023-04-15T08:49:21;6.13;;;5.40;;
15624;SDS011;7912;51.376;6.126;2023-04-15T08:51:55;6.23;;;5.63;;
15624;SDS011;7912;51.376;6.126;2023-04-15T08:54:30;6.47;;;5.47;;
15624;SDS011;7912;51.376;6.126;2023-04-15T09:04:17;5.40;;;4.73;;
15624;SDS011;7912;51.376;6.126;2023-04-15T09:06:45;5.37;;;4.87;;
15624;SDS011;7912;51.376;6.126;2023-04-15T09:09:13;5.47;;;4.97;;
15624;SDS011;7912;51.376;6.126;2023-04-15T09:11:40;5.70;;;5.10;;
15624;SDS011;7912;51.376;6.126;2023-04-15T09:14:19;4.93;;;4.53;;
15624;SDS011;7912;51.376;6.126;2023-04-15T09:16:57;4.93;;;4.53;;
15624;SDS011;7912;51.376;6.126;2023-04-15T09:19:44;4.97;;;4.37;;
15624;SDS011;7912;51.376;6.126;2023-04-15T09:22:30;4.63;;;4.23;;
15624;SDS011;7912;51.376;6.126;2023-04-15T09:25:44;4.57;;;4.10;;
15624;SDS011;7912;51.376;6.126;2023-04-15T09:28:00;4.50;;;3.90;;
15624;SDS011;7912;51.376;6.126;2023-04-15T09:30:32;4.30;;;3.90;;
15624;SDS011;7912;51.376;6.126;2023-04-15T09:33:05;4.73;;;4.33;;
15624;SDS011;7912;51.376;6.126;2023-04-15T09:35:36;5.97;;;4.47;;
15624;SDS011;7912;51.376;6.126;2023-04-15T09:38:05;5.40;;;4.90;;
15624;SDS011;7912;51.376;6.126;2023-04-15T09:40:36;6.60;;;5.37;;
15624;SDS011;7912;51.376;6.126;2023-04-15T09:43:07;5.57;;;4.90;;
15624;SDS011;7912;51.376;6.126;2023-04-15T09:45:38;5.73;;;5.13;;
15624;SDS011;7912;51.376;6.126;2023-04-15T09:48:19;5.73;;;5.17;;
15624;SDS011;7912;51.376;6.126;2023-04-15T09:50:56;7.17;;;5.20;;
15624;SDS011;7912;51.376;6.126;2023-04-15T09:53:27;5.50;;;5.00;;
15624;SDS011;7912;51.376;6.126;2023-04-15T09:55:58;6.63;;;5.07;;
15624;SDS011;7912;51.376;6.126;2023-04-15T09:58:28;5.87;;;5.27;;
15624;SDS011;7912;51.376;6.126;2023-04-15T10:01:02;5.90;;;5.40;;
15624;SDS011;7912;51.376;6.126;2023-04-15T10:03:32;5.67;;;5.10;;
15624;SDS011;7912;51.376;6.126;2023-04-15T10:06:03;5.47;;;4.97;;
15624;SDS011;7912;51.376;6.126;2023-04-15T10:08:36;5.43;;;4.93;;
15624;SDS011;7912;51.376;6.126;2023-04-15T10:11:07;6.23;;;5.00;;
15624;SDS011;7912;51.376;6.126;2023-04-15T10:13:35;7.47;;;4.90;;
15624;SDS011;7912;51.376;6.126;2023-04-15T10:18:37;4.90;;;4.40;;
15624;SDS011;7912;51.376;6.126;2023-04-15T10:21:10;5.60;;;5.10;;
15624;SDS011;7912;51.376;6.126;2023-04-15T10:23:44;5.13;;;4.63;;
15624;SDS011;7912;51.376;6.126;2023-04-15T10:26:12;6.17;;;5.00;;
15624;SDS011;7912;51.376;6.126;2023-04-15T10:28:44;4.77;;;4.27;;
15624;SDS011;7912;51.376;6.126;2023-04-15T10:31:13;6.07;;;5.00;;
15624;SDS011;7912;51.376;6.126;2023-04-15T10:33:43;6.00;;;4.70;;
15624;SDS011;7912;51.376;6.126;2023-04-15T10:36:14;5.47;;;4.97;;
15624;SDS011;7912;51.376;6.126;2023-04-15T10:38:45;5.90;;;5.03;;
15624;SDS011;7912;51.376;6.126;2023-04-15T10:41:22;4.20;;;3.90;;
15624;SDS011;7912;51.376;6.126;2023-04-15T10:44:00;3.27;;;3.03;;
15624;SDS011;7912;51.376;6.126;2023-04-15T10:46:37;3.20;;;2.90;;
15624;SDS011;7912;51.376;6.126;2023-04-15T10:49:10;3.60;;;3.30;;
15624;SDS011;7912;51.376;6.126;2023-04-15T10:51:42;4.17;;;3.77;;
15624;SDS011;7912;51.376;6.126;2023-04-15T10:54:13;4.97;;;3.87;;
15624;SDS011;7912;51.376;6.126;2023-04-15T10:59:34;3.90;;;3.50;;
15624;SDS011;7912;51.376;6.126;2023-04-15T11:08:19;4.77;;;4.37;;
15624;SDS011;7912;51.376;6.126;2023-04-15T11:11:21;5.07;;;4.53;;
15624;SDS011;7912;51.376;6.126;2023-04-15T11:13:50;5.57;;;4.40;;
15624;SDS011;7912;51.376;6.126;2023-04-15T11:16:18;4.20;;;3.87;;
15624;SDS011;7912;51.376;6.126;2023-04-15T11:18:54;4.17;;;3.77;;
15624;SDS011;7912;51.376;6.126;2023-04-15T11:21:25;4.20;;;3.80;;
15624;SDS011;7912;51.376;6.126;2023-04-15T11:23:53;4.30;;;3.90;;
15624;SDS011;7912;51.376;6.126;2023-04-15T11:26:24;3.90;;;3.60;;
15624;SDS011;7912;51.376;6.126;2023-04-15T11:28:52;4.40;;;4.00;;
15624;SDS011;7912;51.376;6.126;2023-04-15T11:31:20;4.00;;;3.67;;
15624;SDS011;7912;51.376;6.126;2023-04-15T11:36:25;3.00;;;2.80;;
15624;SDS011;7912;51.376;6.126;2023-04-15T11:38:56;3.90;;;3.33;;
15624;SDS011;7912;51.376;6.126;2023-04-15T11:41:25;3.57;;;3.27;;
15624;SDS011;7912;51.376;6.126;2023-04-15T11:43:52;3.10;;;2.80;;
15624;SDS011;7912;51.376;6.126;2023-04-15T11:46:19;3.67;;;3.20;;
15624;SDS011;7912;51.376;6.126;2023-04-15T11:48:48;5.33;;;3.43;;
15624;SDS011;7912;51.376;6.126;2023-04-15T11:51:15;3.90;;;3.10;;
15624;SDS011;7912;51.376;6.126;2023-04-15T11:56:21;4.93;;;3.40;;
15624;SDS011;7912;51.376;6.126;2023-04-15T11:58:55;4.43;;;3.60;;
15624;SDS011;7912;51.376;6.126;2023-04-15T12:01:34;3.93;;;3.60;;
15624;SDS011;7912;51.376;6.126;2023-04-15T12:04:16;4.03;;;3.73;;
15624;SDS011;7912;51.376;6.126;2023-04-15T12:06:50;3.83;;;3.43;;
15624;SDS011;7912;51.376;6.126;2023-04-15T12:09:18;3.33;;;3.03;;
15624;SDS011;7912;51.376;6.126;2023-04-15T12:11:50;3.43;;;3.13;;
15624;SDS011;7912;51.376;6.126;2023-04-15T12:14:29;3.40;;;3.10;;
15624;SDS011;7912;51.376;6.126;2023-04-15T12:17:01;4.13;;;3.70;;
15624;SDS011;7912;51.376;6.126;2023-04-15T12:19:34;3.83;;;3.53;;
15624;SDS011;7912;51.376;6.126;2023-04-15T12:22:11;3.70;;;3.40;;
15624;SDS011;7912;51.376;6.126;2023-04-15T12:24:42;4.13;;;3.73;;
15624;SDS011;7912;51.376;6.126;2023-04-15T12:27:14;3.40;;;3.10;;
15624;SDS011;7912;51.376;6.126;2023-04-15T12:29:42;3.87;;;3.20;;
15624;SDS011;7912;51.376;6.126;2023-04-15T12:32:11;3.60;;;3.30;;
15624;SDS011;7912;51.376;6.126;2023-04-15T12:34:42;3.37;;;3.07;;
15624;SDS011;7912;51.376;6.126;2023-04-15T12:37:24;3.43;;;3.13;;
15624;SDS011;7912;51.376;6.126;2023-04-15T12:39:51;4.43;;;3.40;;
15624;SDS011;7912;51.376;6.126;2023-04-15T12:42:22;4.27;;;3.53;;
15624;SDS011;7912;51.376;6.126;2023-04-15T12:44:55;3.20;;;2.90;;
15624;SDS011;7912;51.376;6.126;2023-04-15T12:47:23;2.87;;;2.67;;
15624;SDS011;7912;51.376;6.126;2023-04-15T12:49:59;3.30;;;3.00;;
15624;SDS011;7912;51.376;6.126;2023-04-15T12:52:36;3.53;;;2.87;;
15624;SDS011;7912;51.376;6.126;2023-04-15T12:55:04;4.63;;;3.30;;
15624;SDS011;7912;51.376;6.126;2023-04-15T12:57:41;2.93;;;2.73;;
15624;SDS011;7912;51.376;6.126;2023-04-15T13:00:15;4.17;;;3.43;;
15624;SDS011;7912;51.376;6.126;2023-04-15T13:02:47;3.50;;;3.20;;
15624;SDS011;7912;51.376;6.126;2023-04-15T13:05:17;2.93;;;2.63;;
15624;SDS011;7912;51.376;6.126;2023-04-15T13:07:45;2.93;;;2.70;;
15624;SDS011;7912;51.376;6.126;2023-04-15T13:10:12;3.23;;;2.90;;
15624;SDS011;7912;51.376;6.126;2023-04-15T13:12:40;2.43;;;2.23;;
15624;SDS011;7912;51.376;6.126;2023-04-15T13:15:08;3.47;;;3.17;;
15624;SDS011;7912;51.376;6.126;2023-04-15T13:17:37;3.17;;;2.87;;
15624;SDS011;7912;51.376;6.126;2023-04-15T13:20:05;3.10;;;2.80;;
15624;SDS011;7912;51.376;6.126;2023-04-15T13:26:46;3.50;;;2.57;;
15624;SDS011;7912;51.376;6.126;2023-04-15T13:29:15;2.90;;;2.53;;
15624;SDS011;7912;51.376;6.126;2023-04-15T13:31:51;2.80;;;2.60;;
15624;SDS011;7912;51.376;6.126;2023-04-15T13:34:18;3.33;;;2.73;;
15624;SDS011;7912;51.376;6.126;2023-04-15T13:36:49;3.63;;;2.90;;
15624;SDS011;7912;51.376;6.126;2023-04-15T13:39:17;2.23;;;2.03;;
15624;SDS011;7912;51.376;6.126;2023-04-15T13:41:49;2.90;;;2.00;;
15624;SDS011;7912;51.376;6.126;2023-04-15T13:44:17;2.07;;;1.87;;
15624;SDS011;7912;51.376;6.126;2023-04-15T13:46:47;2.20;;;2.00;;
15624;SDS011;7912;51.376;6.126;2023-04-15T13:49:20;2.10;;;1.90;;
15624;SDS011;7912;51.376;6.126;2023-04-15T13:51:51;2.97;;;1.87;;
15624;SDS011;7912;51.376;6.126;2023-04-15T13:54:22;1.97;;;1.77;;
15624;SDS011;7912;51.376;6.126;2023-04-15T13:57:03;2.00;;;1.80;;
15624;SDS011;7912;51.376;6.126;2023-04-15T13:59:32;2.70;;;1.90;;
15624;SDS011;7912;51.376;6.126;2023-04-15T14:02:00;2.00;;;1.77;;
15624;SDS011;7912;51.376;6.126;2023-04-15T14:04:31;2.73;;;2.10;;
15624;SDS011;7912;51.376;6.126;2023-04-15T14:06:59;2.87;;;2.00;;
15624;SDS011;7912;51.376;6.126;2023-04-15T14:09:30;2.13;;;1.80;;
15624;SDS011;7912;51.376;6.126;2023-04-15T14:12:01;2.93;;;1.77;;
15624;SDS011;7912;51.376;6.126;2023-04-15T14:14:30;1.70;;;1.60;;
15624;SDS011;7912;51.376;6.126;2023-04-15T14:16:57;1.90;;;1.70;;
15624;SDS011;7912;51.376;6.126;2023-04-15T14:19:29;1.73;;;1.63;;
15624;SDS011;7912;51.376;6.126;2023-04-15T14:21:57;1.97;;;1.70;;
15624;SDS011;7912;51.376;6.126;2023-04-15T14:24:25;1.83;;;1.60;;
15624;SDS011;7912;51.376;6.126;2023-04-15T14:26:52;1.80;;;1.70;;
15624;SDS011;7912;51.376;6.126;2023-04-15T14:29:19;1.83;;;1.50;;
15624;SDS011;7912;51.376;6.126;2023-04-15T14:31:47;1.87;;;1.60;;
15624;SDS011;7912;51.376;6.126;2023-04-15T14:34:35;2.03;;;1.47;;
15624;SDS011;7912;51.376;6.126;2023-04-15T14:37:02;2.27;;;1.80;;
15624;SDS011;7912;51.376;6.126;2023-04-15T14:39:30;1.83;;;1.60;;
15624;SDS011;7912;51.376;6.126;2023-04-15T14:41:57;2.07;;;1.73;;
15624;SDS011;7912;51.376;6.126;2023-04-15T14:44:25;2.00;;;1.70;;
15624;SDS011;7912;51.376;6.126;2023-04-15T14:46:53;2.90;;;1.90;;
15624;SDS011;7912;51.376;6.126;2023-04-15T14:49:23;3.23;;;1.80;;
15624;SDS011;7912;51.376;6.126;2023-04-15T14:51:51;2.10;;;1.90;;
15624;SDS011;7912;51.376;6.126;2023-04-15T14:54:19;1.87;;;1.67;;
15624;SDS011;7912;51.376;6.126;2023-04-15T14:56:47;2.10;;;1.90;;
15624;SDS011;7912;51.376;6.126;2023-04-15T14:59:18;2.47;;;1.80;;
15624;SDS011;7912;51.376;6.126;2023-04-15T15:01:46;2.83;;;2.23;;
15624;SDS011;7912;51.376;6.126;2023-04-15T15:04:16;2.20;;;2.00;;
15624;SDS011;7912;51.376;6.126;2023-04-15T15:06:45;3.23;;;2.00;;
15624;SDS011;7912;51.376;6.126;2023-04-15T15:12:03;2.27;;;1.93;;
15624;SDS011;7912;51.376;6.126;2023-04-15T15:14:31;2.33;;;2.13;;
15624;SDS011;7912;51.376;6.126;2023-04-15T15:17:02;3.47;;;2.43;;
15624;SDS011;7912;51.376;6.126;2023-04-15T15:19:29;2.73;;;2.20;;
15624;SDS011;7912;51.376;6.126;2023-04-15T15:21:57;2.63;;;1.93;;
15624;SDS011;7912;51.376;6.126;2023-04-15T15:24:25;2.23;;;2.00;;
15624;SDS011;7912;51.376;6.126;2023-04-15T15:26:56;2.67;;;1.90;;
15624;SDS011;7912;51.376;6.126;2023-04-15T15:29:24;2.40;;;1.93;;
15624;SDS011;7912;51.376;6.126;2023-04-15T15:31:52;2.10;;;1.80;;
15624;SDS011;7912;51.376;6.126;2023-04-15T15:34:19;2.30;;;1.70;;
15624;SDS011;7912;51.376;6.126;2023-04-15T15:36:48;2.80;;;1.80;;
15624;SDS011;7912;51.376;6.126;2023-04-15T15:39:16;2.27;;;1.63;;
15624;SDS011;7912;51.376;6.126;2023-04-15T15:41:45;2.33;;;1.60;;
15624;SDS011;7912;51.376;6.126;2023-04-15T15:44:12;2.10;;;1.70;;
15624;SDS011;7912;51.376;6.126;2023-04-15T15:46:40;2.60;;;1.60;;
15624;SDS011;7912;51.376;6.126;2023-04-15T15:49:08;2.67;;;1.60;;
15624;SDS011;7912;51.376;6.126;2023-04-15T15:51:35;2.53;;;1.60;;
15624;SDS011;7912;51.376;6.126;2023-04-15T15:54:03;3.03;;;1.77;;
15624;SDS011;7912;51.376;6.126;2023-04-15T15:56:30;2.57;;;1.70;;
15624;SDS011;7912;51.376;6.126;2023-04-15T15:58:58;1.90;;;1.57;;
15624;SDS011;7912;51.376;6.126;2023-04-15T16:01:25;2.73;;;1.70;;
15624;SDS011;7912;51.376;6.126;2023-04-15T16:03:53;2.50;;;1.90;;
15624;SDS011;7912;51.376;6.126;2023-04-15T16:06:21;1.50;;;1.40;;
15624;SDS011;7912;51.376;6.126;2023-04-15T16:08:48;1.90;;;1.50;;
15624;SDS011;7912;51.376;6.126;2023-04-15T16:11:16;1.97;;;1.50;;
15624;SDS011;7912;51.376;6.126;2023-04-15T16:13:45;2.13;;;1.40;;
15624;SDS011;7912;51.376;6.126;2023-04-15T16:16:12;3.10;;;1.60;;
15624;SDS011;7912;51.376;6.126;2023-04-15T16:18:40;3.40;;;1.70;;
15624;SDS011;7912;51.376;6.126;2023-04-15T16:21:07;2.67;;;1.47;;
15624;SDS011;7912;51.376;6.126;2023-04-15T16:23:35;1.97;;;1.50;;
15624;SDS011;7912;51.376;6.126;2023-04-15T16:26:02;2.10;;;1.80;;
15624;SDS011;7912;51.376;6.126;2023-04-15T16:28:30;2.37;;;1.67;;
15624;SDS011;7912;51.376;6.126;2023-04-15T16:38:53;3.00;;;1.70;;
15624;SDS011;7912;51.376;6.126;2023-04-15T16:41:21;2.37;;;1.60;;
15624;SDS011;7912;51.376;6.126;2023-04-15T16:43:48;3.63;;;1.80;;